Alyth, United Kingdom
Current Conditions -  °F | °C
As of 4:20 PM on Saturday 20 Dec 2014 (Local Time) from EGPN Reporting Station
Clear Clear  
Wind Chill: 36°   Ceiling: Unl
Heat Index: 41°   Visibility: 6mi
Dew Point: 34°   Wind: 7mph
Humidity: 76%   Direction: 280°W
Pressure: 30.15"   Gusts: NA
Location:  56.62°N, 3.23°W
Report Text: EGPN 201620Z 28006KT 240V320 CAVOK 05/01 Q1021
Loading
Personal Weather Stations






























Interactive Weather Map New forecast layout! Learn more

10-Day Weather Forecast

Advertisements
Track Severe Weather on mobile